sensor_id;sensor_type;location;lat;lon;timestamp;temperature;humidity
20829;DHT22;10575;50.124;8.582;2023-05-10T00:01:04;15.90;99.90
20829;DHT22;10575;50.124;8.582;2023-05-10T00:03:29;15.80;99.90
20829;DHT22;10575;50.124;8.582;2023-05-10T00:05:55;15.80;99.90
20829;DHT22;10575;50.124;8.582;2023-05-10T00:08:20;15.90;99.90
20829;DHT22;10575;50.124;8.582;2023-05-10T00:10:49;15.80;99.90
20829;DHT22;10575;50.124;8.582;2023-05-10T00:13:14;15.80;99.90
20829;DHT22;10575;50.124;8.582;2023-05-10T00:15:40;15.90;99.90
20829;DHT22;10575;50.124;8.582;2023-05-10T00:18:06;15.90;99.90
20829;DHT22;10575;50.124;8.582;2023-05-10T00:20:31;15.90;99.90
20829;DHT22;10575;50.124;8.582;2023-05-10T00:22:57;15.80;99.90
20829;DHT22;10575;50.124;8.582;2023-05-10T00:25:22;15.80;99.90
20829;DHT22;10575;50.124;8.582;2023-05-10T00:27:48;15.80;99.90
20829;DHT22;10575;50.124;8.582;2023-05-10T00:30:13;15.90;99.90
20829;DHT22;10575;50.124;8.582;2023-05-10T00:32:39;15.90;99.90
20829;DHT22;10575;50.124;8.582;2023-05-10T00:35:05;15.90;99.90
20829;DHT22;10575;50.124;8.582;2023-05-10T00:37:30;15.70;99.90
20829;DHT22;10575;50.124;8.582;2023-05-10T00:39:56;15.70;99.90
20829;DHT22;10575;50.124;8.582;2023-05-10T00:42:21;15.70;99.90
20829;DHT22;10575;50.124;8.582;2023-05-10T00:44:47;15.70;99.90
20829;DHT22;10575;50.124;8.582;2023-05-10T00:47:13;15.70;99.90
20829;DHT22;10575;50.124;8.582;2023-05-10T00:49:39;15.70;99.90
20829;DHT22;10575;50.124;8.582;2023-05-10T00:52:06;15.60;99.90
20829;DHT22;10575;50.124;8.582;2023-05-10T00:54:31;15.50;99.90
20829;DHT22;10575;50.124;8.582;2023-05-10T00:56:57;15.50;99.90
20829;DHT22;10575;50.124;8.582;2023-05-10T00:59:22;15.50;99.90
20829;DHT22;10575;50.124;8.582;2023-05-10T01:01:48;15.40;99.90
20829;DHT22;10575;50.124;8.582;2023-05-10T01:04:14;15.50;99.90
20829;DHT22;10575;50.124;8.582;2023-05-10T01:06:41;15.50;99.90
20829;DHT22;10575;50.124;8.582;2023-05-10T01:09:06;15.50;99.90
20829;DHT22;10575;50.124;8.582;2023-05-10T01:11:34;15.50;99.90
20829;DHT22;10575;50.124;8.582;2023-05-10T01:14:00;15.40;99.90
20829;DHT22;10575;50.124;8.582;2023-05-10T01:16:26;15.40;99.90
20829;DHT22;10575;50.124;8.582;2023-05-10T01:18:53;15.40;99.90
20829;DHT22;10575;50.124;8.582;2023-05-10T01:21:38;15.40;99.90
20829;DHT22;10575;50.124;8.582;2023-05-10T01:27:29;15.40;99.90
20829;DHT22;10575;50.124;8.582;2023-05-10T01:30:09;15.40;99.90
20829;DHT22;10575;50.124;8.582;2023-05-10T01:32:47;15.30;99.90
20829;DHT22;10575;50.124;8.582;2023-05-10T01:35:41;15.20;99.90
20829;DHT22;10575;50.124;8.582;2023-05-10T01:41:14;15.20;99.90
20829;DHT22;10575;50.124;8.582;2023-05-10T01:46:39;15.00;99.90
20829;DHT22;10575;50.124;8.582;2023-05-10T01:49:30;15.10;99.90
20829;DHT22;10575;50.124;8.582;2023-05-10T01:51:56;15.10;99.90
20829;DHT22;10575;50.124;8.582;2023-05-10T01:54:24;15.20;99.90
20829;DHT22;10575;50.124;8.582;2023-05-10T01:56:54;15.10;99.90
20829;DHT22;10575;50.124;8.582;2023-05-10T01:59:21;15.10;99.90
20829;DHT22;10575;50.124;8.582;2023-05-10T02:01:47;15.10;99.90
20829;DHT22;10575;50.124;8.582;2023-05-10T02:04:15;15.10;99.90
20829;DHT22;10575;50.124;8.582;2023-05-10T02:06:42;15.10;99.90
20829;DHT22;10575;50.124;8.582;2023-05-10T02:09:10;14.90;99.90
20829;DHT22;10575;50.124;8.582;2023-05-10T02:11:38;14.80;99.90
20829;DHT22;10575;50.124;8.582;2023-05-10T02:14:07;14.90;99.90
20829;DHT22;10575;50.124;8.582;2023-05-10T02:16:35;14.90;99.90
20829;DHT22;10575;50.124;8.582;2023-05-10T02:19:02;15.00;99.90
20829;DHT22;10575;50.124;8.582;2023-05-10T02:21:29;15.00;99.90
20829;DHT22;10575;50.124;8.582;2023-05-10T02:23:57;15.00;99.90
20829;DHT22;10575;50.124;8.582;2023-05-10T02:26:23;15.10;99.90
20829;DHT22;10575;50.124;8.582;2023-05-10T02:28:51;15.00;99.90
20829;DHT22;10575;50.124;8.582;2023-05-10T02:31:18;15.00;99.90
20829;DHT22;10575;50.124;8.582;2023-05-10T02:33:44;15.00;99.90
20829;DHT22;10575;50.124;8.582;2023-05-10T02:36:11;15.00;99.90
20829;DHT22;10575;50.124;8.582;2023-05-10T02:38:37;14.90;99.90
20829;DHT22;10575;50.124;8.582;2023-05-10T02:41:05;15.00;99.90
20829;DHT22;10575;50.124;8.582;2023-05-10T02:43:33;15.00;99.90
20829;DHT22;10575;50.124;8.582;2023-05-10T02:45:59;15.00;99.90
20829;DHT22;10575;50.124;8.582;2023-05-10T02:48:24;15.00;99.90
20829;DHT22;10575;50.124;8.582;2023-05-10T02:50:51;15.00;99.90
20829;DHT22;10575;50.124;8.582;2023-05-10T02:53:22;14.90;99.90
20829;DHT22;10575;50.124;8.582;2023-05-10T02:55:51;15.00;99.90
20829;DHT22;10575;50.124;8.582;2023-05-10T02:58:17;15.00;99.90
20829;DHT22;10575;50.124;8.582;2023-05-10T03:00:44;14.90;99.90
20829;DHT22;10575;50.124;8.582;2023-05-10T03:03:10;14.90;99.90
20829;DHT22;10575;50.124;8.582;2023-05-10T03:05:36;15.00;99.90
20829;DHT22;10575;50.124;8.582;2023-05-10T03:08:02;15.00;99.90
20829;DHT22;10575;50.124;8.582;2023-05-10T03:10:30;15.00;99.90
20829;DHT22;10575;50.124;8.582;2023-05-10T03:13:16;14.90;99.90
20829;DHT22;10575;50.124;8.582;2023-05-10T03:18:44;15.00;99.90
20829;DHT22;10575;50.124;8.582;2023-05-10T03:21:11;15.00;99.90
20829;DHT22;10575;50.124;8.582;2023-05-10T03:23:50;15.00;99.90
20829;DHT22;10575;50.124;8.582;2023-05-10T03:26:24;15.10;99.90
20829;DHT22;10575;50.124;8.582;2023-05-10T03:28:51;15.00;99.90
20829;DHT22;10575;50.124;8.582;2023-05-10T03:31:18;15.00;99.90
20829;DHT22;10575;50.124;8.582;2023-05-10T03:33:51;15.00;99.90
20829;DHT22;10575;50.124;8.582;2023-05-10T03:36:17;15.00;99.90
20829;DHT22;10575;50.124;8.582;2023-05-10T03:38:43;14.80;99.90
20829;DHT22;10575;50.124;8.582;2023-05-10T03:41:08;14.60;99.90
20829;DHT22;10575;50.124;8.582;2023-05-10T03:43:34;14.60;99.90
20829;DHT22;10575;50.124;8.582;2023-05-10T03:46:02;14.60;99.90
20829;DHT22;10575;50.124;8.582;2023-05-10T03:48:28;14.50;99.90
20829;DHT22;10575;50.124;8.582;2023-05-10T03:50:53;14.50;99.90
20829;DHT22;10575;50.124;8.582;2023-05-10T03:53:19;14.60;99.90
20829;DHT22;10575;50.124;8.582;2023-05-10T03:55:44;14.70;99.90
20829;DHT22;10575;50.124;8.582;2023-05-10T03:58:13;14.80;99.90
20829;DHT22;10575;50.124;8.582;2023-05-10T04:00:38;14.90;99.90
20829;DHT22;10575;50.124;8.582;2023-05-10T04:03:09;14.80;99.90
20829;DHT22;10575;50.124;8.582;2023-05-10T04:05:35;14.80;99.90
20829;DHT22;10575;50.124;8.582;2023-05-10T04:08:01;14.90;99.90
20829;DHT22;10575;50.124;8.582;2023-05-10T04:10:26;15.00;99.90
20829;DHT22;10575;50.124;8.582;2023-05-10T04:12:52;15.00;99.90
20829;DHT22;10575;50.124;8.582;2023-05-10T04:15:17;15.10;99.90
20829;DHT22;10575;50.124;8.582;2023-05-10T04:17:43;15.10;99.90
20829;DHT22;10575;50.124;8.582;2023-05-10T04:20:09;15.20;99.90
20829;DHT22;10575;50.124;8.582;2023-05-10T04:22:35;15.20;99.90
20829;DHT22;10575;50.124;8.582;2023-05-10T04:25:00;15.20;99.90
20829;DHT22;10575;50.124;8.582;2023-05-10T04:27:26;15.20;99.90
20829;DHT22;10575;50.124;8.582;2023-05-10T04:29:51;15.30;99.90
20829;DHT22;10575;50.124;8.582;2023-05-10T04:32:17;15.30;99.90
20829;DHT22;10575;50.124;8.582;2023-05-10T04:34:43;15.30;99.90
20829;DHT22;10575;50.124;8.582;2023-05-10T04:37:08;15.30;99.90
20829;DHT22;10575;50.124;8.582;2023-05-10T04:39:34;15.30;99.90
20829;DHT22;10575;50.124;8.582;2023-05-10T04:42:01;15.30;99.90
20829;DHT22;10575;50.124;8.582;2023-05-10T04:44:28;15.30;99.90
20829;DHT22;10575;50.124;8.582;2023-05-10T04:46:54;15.20;99.90
20829;DHT22;10575;50.124;8.582;2023-05-10T04:49:20;15.30;99.90
20829;DHT22;10575;50.124;8.582;2023-05-10T04:51:46;15.30;99.90
20829;DHT22;10575;50.124;8.582;2023-05-10T04:54:11;15.40;99.90
20829;DHT22;10575;50.124;8.582;2023-05-10T04:56:37;15.50;99.90
20829;DHT22;10575;50.124;8.582;2023-05-10T04:59:02;15.50;99.90
20829;DHT22;10575;50.124;8.582;2023-05-10T05:01:28;15.50;99.90
20829;DHT22;10575;50.124;8.582;2023-05-10T05:03:53;15.60;99.90
20829;DHT22;10575;50.124;8.582;2023-05-10T05:06:19;15.50;99.90
20829;DHT22;10575;50.124;8.582;2023-05-10T05:08:46;15.60;99.90
20829;DHT22;10575;50.124;8.582;2023-05-10T05:11:11;15.50;99.90
20829;DHT22;10575;50.124;8.582;2023-05-10T05:13:37;15.50;99.90
20829;DHT22;10575;50.124;8.582;2023-05-10T05:16:03;15.40;99.90
20829;DHT22;10575;50.124;8.582;2023-05-10T05:18:28;15.50;99.90
20829;DHT22;10575;50.124;8.582;2023-05-10T05:20:54;15.60;99.90
20829;DHT22;10575;50.124;8.582;2023-05-10T05:23:19;15.60;99.90
20829;DHT22;10575;50.124;8.582;2023-05-10T05:25:46;15.70;99.90
20829;DHT22;10575;50.124;8.582;2023-05-10T05:28:11;15.80;99.90
20829;DHT22;10575;50.124;8.582;2023-05-10T05:30:37;15.90;99.90
20829;DHT22;10575;50.124;8.582;2023-05-10T05:33:03;15.90;99.90
20829;DHT22;10575;50.124;8.582;2023-05-10T05:35:28;15.90;99.90
20829;DHT22;10575;50.124;8.582;2023-05-10T05:37:54;15.90;99.90
20829;DHT22;10575;50.124;8.582;2023-05-10T05:40:19;16.00;99.90
20829;DHT22;10575;50.124;8.582;2023-05-10T05:42:45;16.00;99.90
20829;DHT22;10575;50.124;8.582;2023-05-10T05:45:11;16.20;99.90
20829;DHT22;10575;50.124;8.582;2023-05-10T05:47:39;16.30;99.90
20829;DHT22;10575;50.124;8.582;2023-05-10T05:50:05;16.40;99.90
20829;DHT22;10575;50.124;8.582;2023-05-10T05:52:31;16.50;99.90
20829;DHT22;10575;50.124;8.582;2023-05-10T05:54:56;16.50;99.90
20829;DHT22;10575;50.124;8.582;2023-05-10T05:57:22;16.30;99.90
20829;DHT22;10575;50.124;8.582;2023-05-10T05:59:48;16.30;99.90
20829;DHT22;10575;50.124;8.582;2023-05-10T06:02:13;16.20;99.90
20829;DHT22;10575;50.124;8.582;2023-05-10T06:04:39;16.20;99.90
20829;DHT22;10575;50.124;8.582;2023-05-10T06:07:04;16.20;99.90
20829;DHT22;10575;50.124;8.582;2023-05-10T06:09:30;16.40;99.90
20829;DHT22;10575;50.124;8.582;2023-05-10T06:11:56;16.70;99.90
20829;DHT22;10575;50.124;8.582;2023-05-10T06:14:21;17.00;99.90
20829;DHT22;10575;50.124;8.582;2023-05-10T06:16:47;17.30;99.90
20829;DHT22;10575;50.124;8.582;2023-05-10T06:19:12;17.60;99.90
20829;DHT22;10575;50.124;8.582;2023-05-10T06:21:38;17.70;99.90
20829;DHT22;10575;50.124;8.582;2023-05-10T06:24:05;17.70;99.90
20829;DHT22;10575;50.124;8.582;2023-05-10T06:26:32;17.60;99.90
20829;DHT22;10575;50.124;8.582;2023-05-10T06:28:57;17.40;99.90
20829;DHT22;10575;50.124;8.582;2023-05-10T06:31:23;17.20;99.90
20829;DHT22;10575;50.124;8.582;2023-05-10T06:33:48;17.10;99.90
20829;DHT22;10575;50.124;8.582;2023-05-10T06:36:14;17.00;99.90
20829;DHT22;10575;50.124;8.582;2023-05-10T06:38:39;17.20;99.90
20829;DHT22;10575;50.124;8.582;2023-05-10T06:41:05;17.30;99.90
20829;DHT22;10575;50.124;8.582;2023-05-10T06:43:31;17.40;99.90
20829;DHT22;10575;50.124;8.582;2023-05-10T06:45:57;17.50;99.90
20829;DHT22;10575;50.124;8.582;2023-05-10T06:48:22;17.70;99.90
20829;DHT22;10575;50.124;8.582;2023-05-10T06:50:48;18.00;99.90
20829;DHT22;10575;50.124;8.582;2023-05-10T06:53:13;18.30;99.90
20829;DHT22;10575;50.124;8.582;2023-05-10T06:55:39;18.60;99.90
20829;DHT22;10575;50.124;8.582;2023-05-10T06:58:05;18.80;99.90
20829;DHT22;10575;50.124;8.582;2023-05-10T07:00:31;18.90;99.90
20829;DHT22;10575;50.124;8.582;2023-05-10T07:02:56;19.00;99.90
20829;DHT22;10575;50.124;8.582;2023-05-10T07:05:22;19.00;99.90
20829;DHT22;10575;50.124;8.582;2023-05-10T07:07:48;18.80;99.90
20829;DHT22;10575;50.124;8.582;2023-05-10T07:10:13;18.70;99.90
20829;DHT22;10575;50.124;8.582;2023-05-10T07:12:39;18.60;99.90
20829;DHT22;10575;50.124;8.582;2023-05-10T07:15:05;18.40;99.90
20829;DHT22;10575;50.124;8.582;2023-05-10T07:17:31;18.20;99.90
20829;DHT22;10575;50.124;8.582;2023-05-10T07:19:56;17.90;99.90
20829;DHT22;10575;50.124;8.582;2023-05-10T07:22:22;17.90;99.90
20829;DHT22;10575;50.124;8.582;2023-05-10T07:24:47;18.00;99.90
20829;DHT22;10575;50.124;8.582;2023-05-10T07:27:13;18.10;99.90
20829;DHT22;10575;50.124;8.582;2023-05-10T07:29:38;18.00;99.90
20829;DHT22;10575;50.124;8.582;2023-05-10T07:32:04;17.90;99.90
20829;DHT22;10575;50.124;8.582;2023-05-10T07:34:31;17.80;99.90
20829;DHT22;10575;50.124;8.582;2023-05-10T07:37:00;18.00;99.90
20829;DHT22;10575;50.124;8.582;2023-05-10T07:39:26;17.90;99.90
20829;DHT22;10575;50.124;8.582;2023-05-10T07:41:52;18.00;99.90
20829;DHT22;10575;50.124;8.582;2023-05-10T07:44:17;18.00;99.90
20829;DHT22;10575;50.124;8.582;2023-05-10T07:46:46;18.40;99.90
20829;DHT22;10575;50.124;8.582;2023-05-10T07:49:12;18.70;99.90
20829;DHT22;10575;50.124;8.582;2023-05-10T07:51:38;19.00;99.90
20829;DHT22;10575;50.124;8.582;2023-05-10T07:54:03;19.30;99.90
20829;DHT22;10575;50.124;8.582;2023-05-10T07:56:30;19.70;99.90
20829;DHT22;10575;50.124;8.582;2023-05-10T07:59:00;20.10;99.90
20829;DHT22;10575;50.124;8.582;2023-05-10T08:01:43;20.40;99.90
20829;DHT22;10575;50.124;8.582;2023-05-10T08:04:09;20.50;99.90
20829;DHT22;10575;50.124;8.582;2023-05-10T08:06:34;20.40;99.90
20829;DHT22;10575;50.124;8.582;2023-05-10T08:09:00;20.20;99.90
20829;DHT22;10575;50.124;8.582;2023-05-10T08:11:26;20.20;99.90
20829;DHT22;10575;50.124;8.582;2023-05-10T08:13:53;20.10;99.90
20829;DHT22;10575;50.124;8.582;2023-05-10T08:16:19;19.90;99.90
20829;DHT22;10575;50.124;8.582;2023-05-10T08:18:46;19.30;99.90
20829;DHT22;10575;50.124;8.582;2023-05-10T08:21:16;19.20;99.90
20829;DHT22;10575;50.124;8.582;2023-05-10T08:23:41;19.20;99.90
20829;DHT22;10575;50.124;8.582;2023-05-10T08:26:08;19.10;99.90
20829;DHT22;10575;50.124;8.582;2023-05-10T08:28:34;18.90;99.90
20829;DHT22;10575;50.124;8.582;2023-05-10T08:31:00;19.00;99.90
20829;DHT22;10575;50.124;8.582;2023-05-10T08:33:25;19.10;99.90
20829;DHT22;10575;50.124;8.582;2023-05-10T08:35:51;19.10;99.90
20829;DHT22;10575;50.124;8.582;2023-05-10T08:38:17;19.10;99.90
20829;DHT22;10575;50.124;8.582;2023-05-10T08:40:43;19.30;99.90
20829;DHT22;10575;50.124;8.582;2023-05-10T08:43:13;19.40;99.90
20829;DHT22;10575;50.124;8.582;2023-05-10T08:45:42;19.40;99.90
20829;DHT22;10575;50.124;8.582;2023-05-10T08:48:09;19.40;99.90
20829;DHT22;10575;50.124;8.582;2023-05-10T08:50:40;19.30;99.90
20829;DHT22;10575;50.124;8.582;2023-05-10T08:53:13;19.30;99.90
20829;DHT22;10575;50.124;8.582;2023-05-10T08:55:39;19.30;99.90
20829;DHT22;10575;50.124;8.582;2023-05-10T08:58:06;19.20;99.90
20829;DHT22;10575;50.124;8.582;2023-05-10T09:00:32;19.10;99.90
20829;DHT22;10575;50.124;8.582;2023-05-10T09:02:58;18.70;99.90
20829;DHT22;10575;50.124;8.582;2023-05-10T09:05:24;18.60;99.90
20829;DHT22;10575;50.124;8.582;2023-05-10T09:07:50;18.70;99.90
20829;DHT22;10575;50.124;8.582;2023-05-10T09:10:16;18.80;99.90
20829;DHT22;10575;50.124;8.582;2023-05-10T09:12:43;18.80;99.90
20829;DHT22;10575;50.124;8.582;2023-05-10T09:15:09;19.00;99.90
20829;DHT22;10575;50.124;8.582;2023-05-10T09:17:36;18.80;99.90
20829;DHT22;10575;50.124;8.582;2023-05-10T09:20:03;18.80;99.90
20829;DHT22;10575;50.124;8.582;2023-05-10T09:22:32;19.00;99.90
20829;DHT22;10575;50.124;8.582;2023-05-10T09:25:24;19.30;99.90
20829;DHT22;10575;50.124;8.582;2023-05-10T09:27:50;19.50;99.90
20829;DHT22;10575;50.124;8.582;2023-05-10T09:30:17;19.60;99.90
20829;DHT22;10575;50.124;8.582;2023-05-10T09:32:45;19.40;99.90
20829;DHT22;10575;50.124;8.582;2023-05-10T09:35:19;19.70;99.90
20829;DHT22;10575;50.124;8.582;2023-05-10T09:37:47;19.60;99.90
20829;DHT22;10575;50.124;8.582;2023-05-10T09:40:22;20.20;99.90
20829;DHT22;10575;50.124;8.582;2023-05-10T09:43:07;21.40;99.90
20829;DHT22;10575;50.124;8.582;2023-05-10T09:45:36;22.00;99.90
20829;DHT22;10575;50.124;8.582;2023-05-10T09:48:03;22.20;99.90
20829;DHT22;10575;50.124;8.582;2023-05-10T09:50:29;22.20;99.90
20829;DHT22;10575;50.124;8.582;2023-05-10T09:52:57;22.70;99.90
20829;DHT22;10575;50.124;8.582;2023-05-10T09:58:01;22.70;99.90
20829;DHT22;10575;50.124;8.582;2023-05-10T10:00:28;22.40;99.90
20829;DHT22;10575;50.124;8.582;2023-05-10T10:02:59;22.00;99.90
20829;DHT22;10575;50.124;8.582;2023-05-10T10:05:44;21.40;99.90
20829;DHT22;10575;50.124;8.582;2023-05-10T10:08:10;20.60;99.90
20829;DHT22;10575;50.124;8.582;2023-05-10T10:10:37;20.10;99.90
20829;DHT22;10575;50.124;8.582;2023-05-10T10:13:05;19.80;99.90
20829;DHT22;10575;50.124;8.582;2023-05-10T10:15:33;19.70;99.90
20829;DHT22;10575;50.124;8.582;2023-05-10T10:17:58;19.50;99.90
20829;DHT22;10575;50.124;8.582;2023-05-10T10:20:25;19.80;99.90
20829;DHT22;10575;50.124;8.582;2023-05-10T10:22:51;20.00;99.90
20829;DHT22;10575;50.124;8.582;2023-05-10T10:25:17;20.40;99.90
20829;DHT22;10575;50.124;8.582;2023-05-10T10:35:34;20.00;99.90
20829;DHT22;10575;50.124;8.582;2023-05-10T10:38:00;19.60;99.90
20829;DHT22;10575;50.124;8.582;2023-05-10T10:40:30;19.20;99.90
20829;DHT22;10575;50.124;8.582;2023-05-10T10:42:57;18.90;99.90
20829;DHT22;10575;50.124;8.582;2023-05-10T10:45:25;18.70;99.90
20829;DHT22;10575;50.124;8.582;2023-05-10T10:48:47;18.30;99.90
20829;DHT22;10575;50.124;8.582;2023-05-10T10:51:02;18.00;99.90
20829;DHT22;10575;50.124;8.582;2023-05-10T10:53:28;17.80;99.90
20829;DHT22;10575;50.124;8.582;2023-05-10T10:56:11;17.90;99.90
20829;DHT22;10575;50.124;8.582;2023-05-10T10:58:39;18.10;99.90
20829;DHT22;10575;50.124;8.582;2023-05-10T11:01:16;18.20;99.90
20829;DHT22;10575;50.124;8.582;2023-05-10T11:06:30;19.00;99.90
20829;DHT22;10575;50.124;8.582;2023-05-10T11:08:57;19.20;99.90
20829;DHT22;10575;50.124;8.582;2023-05-10T11:11:22;19.40;99.90
20829;DHT22;10575;50.124;8.582;2023-05-10T11:13:48;19.70;99.90
20829;DHT22;10575;50.124;8.582;2023-05-10T11:16:22;20.00;99.90
20829;DHT22;10575;50.124;8.582;2023-05-10T11:19:07;20.20;99.90
20829;DHT22;10575;50.124;8.582;2023-05-10T11:21:33;20.80;99.90
20829;DHT22;10575;50.124;8.582;2023-05-10T11:24:01;21.10;99.90
20829;DHT22;10575;50.124;8.582;2023-05-10T11:26:33;21.30;99.90
20829;DHT22;10575;50.124;8.582;2023-05-10T11:28:59;21.20;99.90
20829;DHT22;10575;50.124;8.582;2023-05-10T11:31:26;20.70;99.90
20829;DHT22;10575;50.124;8.582;2023-05-10T11:33:56;20.10;99.90
20829;DHT22;10575;50.124;8.582;2023-05-10T11:36:32;19.80;99.90
20829;DHT22;10575;50.124;8.582;2023-05-10T11:39:03;19.70;99.90
20829;DHT22;10575;50.124;8.582;2023-05-10T11:41:30;19.50;99.90
20829;DHT22;10575;50.124;8.582;2023-05-10T11:43:57;19.60;99.90
20829;DHT22;10575;50.124;8.582;2023-05-10T11:46:25;19.60;99.90
20829;DHT22;10575;50.124;8.582;2023-05-10T11:48:53;19.40;99.90
20829;DHT22;10575;50.124;8.582;2023-05-10T11:51:23;19.30;99.90
20829;DHT22;10575;50.124;8.582;2023-05-10T11:53:50;19.10;99.90
20829;DHT22;10575;50.124;8.582;2023-05-10T11:56:17;19.20;99.90
20829;DHT22;10575;50.124;8.582;2023-05-10T11:58:43;19.10;99.90
20829;DHT22;10575;50.124;8.582;2023-05-10T12:01:08;19.10;99.90
20829;DHT22;10575;50.124;8.582;2023-05-10T12:03:35;19.10;99.90
20829;DHT22;10575;50.124;8.582;2023-05-10T12:06:02;19.30;99.90
20829;DHT22;10575;50.124;8.582;2023-05-10T12:08:29;19.60;99.90
20829;DHT22;10575;50.124;8.582;2023-05-10T12:11:07;20.10;99.90
20829;DHT22;10575;50.124;8.582;2023-05-10T12:13:42;20.40;99.90
20829;DHT22;10575;50.124;8.582;2023-05-10T12:16:22;20.70;99.90
20829;DHT22;10575;50.124;8.582;2023-05-10T12:18:51;20.90;99.90
20829;DHT22;10575;50.124;8.582;2023-05-10T12:21:19;20.90;99.90
20829;DHT22;10575;50.124;8.582;2023-05-10T12:23:50;21.40;99.90
20829;DHT22;10575;50.124;8.582;2023-05-10T12:26:15;21.90;99.90
20829;DHT22;10575;50.124;8.582;2023-05-10T12:28:41;22.10;99.90
20829;DHT22;10575;50.124;8.582;2023-05-10T12:31:07;22.10;99.90
20829;DHT22;10575;50.124;8.582;2023-05-10T12:33:41;21.70;99.90
20829;DHT22;10575;50.124;8.582;2023-05-10T12:36:08;21.90;99.90
20829;DHT22;10575;50.124;8.582;2023-05-10T12:38:36;21.90;99.90
20829;DHT22;10575;50.124;8.582;2023-05-10T12:43:30;21.60;99.90
20829;DHT22;10575;50.124;8.582;2023-05-10T12:45:56;21.30;99.90
20829;DHT22;10575;50.124;8.582;2023-05-10T12:48:21;20.80;99.90
20829;DHT22;10575;50.124;8.582;2023-05-10T12:50:47;20.90;99.90
20829;DHT22;10575;50.124;8.582;2023-05-10T12:53:14;21.00;99.90
20829;DHT22;10575;50.124;8.582;2023-05-10T12:55:43;21.10;99.90
20829;DHT22;10575;50.124;8.582;2023-05-10T12:58:09;21.00;99.90
20829;DHT22;10575;50.124;8.582;2023-05-10T13:00:35;21.20;99.90
20829;DHT22;10575;50.124;8.582;2023-05-10T13:03:03;21.20;99.90
20829;DHT22;10575;50.124;8.582;2023-05-10T13:05:34;21.30;99.90
20829;DHT22;10575;50.124;8.582;2023-05-10T13:07:59;21.30;99.90
20829;DHT22;10575;50.124;8.582;2023-05-10T13:10:25;21.40;99.90
20829;DHT22;10575;50.124;8.582;2023-05-10T13:12:51;21.20;99.90
20829;DHT22;10575;50.124;8.582;2023-05-10T13:15:17;21.10;99.90
20829;DHT22;10575;50.124;8.582;2023-05-10T13:17:42;21.00;99.90
20829;DHT22;10575;50.124;8.582;2023-05-10T13:20:09;20.90;99.90
20829;DHT22;10575;50.124;8.582;2023-05-10T13:22:35;20.60;99.90
20829;DHT22;10575;50.124;8.582;2023-05-10T13:25:01;20.30;99.90
20829;DHT22;10575;50.124;8.582;2023-05-10T13:27:26;20.50;99.90
20829;DHT22;10575;50.124;8.582;2023-05-10T13:29:52;20.60;99.90
20829;DHT22;10575;50.124;8.582;2023-05-10T13:32:17;20.40;99.90
20829;DHT22;10575;50.124;8.582;2023-05-10T13:34:43;20.30;99.90
20829;DHT22;10575;50.124;8.582;2023-05-10T13:37:09;20.30;99.90
20829;DHT22;10575;50.124;8.582;2023-05-10T13:39:34;20.40;99.90
20829;DHT22;10575;50.124;8.582;2023-05-10T13:42:02;20.50;99.90
20829;DHT22;10575;50.124;8.582;2023-05-10T13:44:28;20.40;99.90
20829;DHT22;10575;50.124;8.582;2023-05-10T13:46:54;20.00;99.90
20829;DHT22;10575;50.124;8.582;2023-05-10T13:49:20;20.20;99.90
20829;DHT22;10575;50.124;8.582;2023-05-10T13:51:47;20.60;99.90
20829;DHT22;10575;50.124;8.582;2023-05-10T13:54:12;20.80;99.90
20829;DHT22;10575;50.124;8.582;2023-05-10T13:56:38;20.70;99.90
20829;DHT22;10575;50.124;8.582;2023-05-10T13:59:04;20.80;99.90
20829;DHT22;10575;50.124;8.582;2023-05-10T14:01:29;20.90;99.90
20829;DHT22;10575;50.124;8.582;2023-05-10T14:03:55;21.00;99.90
20829;DHT22;10575;50.124;8.582;2023-05-10T14:06:20;20.80;99.90
20829;DHT22;10575;50.124;8.582;2023-05-10T14:08:46;20.40;99.90
20829;DHT22;10575;50.124;8.582;2023-05-10T14:11:12;20.20;99.90
20829;DHT22;10575;50.124;8.582;2023-05-10T14:13:38;20.20;99.90
20829;DHT22;10575;50.124;8.582;2023-05-10T14:16:04;20.00;99.90
20829;DHT22;10575;50.124;8.582;2023-05-10T14:18:29;20.00;99.90
20829;DHT22;10575;50.124;8.582;2023-05-10T14:20:55;20.20;99.90
20829;DHT22;10575;50.124;8.582;2023-05-10T14:23:22;20.50;99.90
20829;DHT22;10575;50.124;8.582;2023-05-10T14:25:50;20.40;99.90
20829;DHT22;10575;50.124;8.582;2023-05-10T14:28:16;20.70;99.90
20829;DHT22;10575;50.124;8.582;2023-05-10T14:30:42;21.00;99.90
20829;DHT22;10575;50.124;8.582;2023-05-10T14:33:08;21.00;99.90
20829;DHT22;10575;50.124;8.582;2023-05-10T14:35:34;21.10;99.90
20829;DHT22;10575;50.124;8.582;2023-05-10T14:37:59;21.10;99.90
20829;DHT22;10575;50.124;8.582;2023-05-10T14:40:25;20.90;99.90
20829;DHT22;10575;50.124;8.582;2023-05-10T14:42:51;20.80;99.90
20829;DHT22;10575;50.124;8.582;2023-05-10T14:45:18;20.50;99.90
20829;DHT22;10575;50.124;8.582;2023-05-10T14:47:44;20.30;99.90
20829;DHT22;10575;50.124;8.582;2023-05-10T14:50:09;20.20;99.90
20829;DHT22;10575;50.124;8.582;2023-05-10T14:52:35;20.20;99.90
20829;DHT22;10575;50.124;8.582;2023-05-10T14:55:01;20.20;99.90
20829;DHT22;10575;50.124;8.582;2023-05-10T14:57:27;20.40;99.90
20829;DHT22;10575;50.124;8.582;2023-05-10T14:59:55;20.50;99.90
20829;DHT22;10575;50.124;8.582;2023-05-10T15:02:21;20.50;99.90
20829;DHT22;10575;50.124;8.582;2023-05-10T15:04:47;20.40;99.90
20829;DHT22;10575;50.124;8.582;2023-05-10T15:07:12;20.40;99.90
20829;DHT22;10575;50.124;8.582;2023-05-10T15:09:40;20.50;99.90
20829;DHT22;10575;50.124;8.582;2023-05-10T15:12:05;20.40;99.90
20829;DHT22;10575;50.124;8.582;2023-05-10T15:14:31;20.40;99.90
20829;DHT22;10575;50.124;8.582;2023-05-10T15:16:58;20.40;99.90
20829;DHT22;10575;50.124;8.582;2023-05-10T15:19:23;20.50;99.90
20829;DHT22;10575;50.124;8.582;2023-05-10T15:21:49;20.40;99.90
20829;DHT22;10575;50.124;8.582;2023-05-10T15:24:14;20.40;99.90
20829;DHT22;10575;50.124;8.582;2023-05-10T15:26:40;20.40;99.90
20829;DHT22;10575;50.124;8.582;2023-05-10T15:29:06;20.40;99.90
20829;DHT22;10575;50.124;8.582;2023-05-10T15:31:31;20.40;99.90
20829;DHT22;10575;50.124;8.582;2023-05-10T15:34:00;20.50;99.90
20829;DHT22;10575;50.124;8.582;2023-05-10T15:36:26;20.50;99.90
20829;DHT22;10575;50.124;8.582;2023-05-10T15:38:52;20.60;99.90
20829;DHT22;10575;50.124;8.582;2023-05-10T15:41:18;20.30;99.90
20829;DHT22;10575;50.124;8.582;2023-05-10T15:43:44;20.30;99.90
20829;DHT22;10575;50.124;8.582;2023-05-10T15:46:09;20.10;99.90
20829;DHT22;10575;50.124;8.582;2023-05-10T15:48:35;20.00;99.90
20829;DHT22;10575;50.124;8.582;2023-05-10T15:51:00;20.20;99.90
20829;DHT22;10575;50.124;8.582;2023-05-10T15:53:26;20.00;99.90
20829;DHT22;10575;50.124;8.582;2023-05-10T15:55:51;20.10;99.90
20829;DHT22;10575;50.124;8.582;2023-05-10T15:58:18;20.20;99.90